Elwood, Illinois
Current Conditions -  °F | °C
As of 4:55 PM on Thursday 18 Dec 2014 (Local Time) from KJOT Reporting Station
Overcast Overcast  
Wind Chill: 25°   Ceiling: 2400
Heat Index: 25°   Visibility: 10mi
Dew Point: 18°   Wind: 0mph
Humidity: 73%   Direction: NA
Pressure: 30.25"   Gusts: NA
Location:  41.4°N, 88.11°W
Report Text: KJOT 182255Z AUTO 00000KT 10SM OVC024 M04/M08 A3025 RMK AO2 T10371079
Loading
Personal Weather Stations






























Interactive Weather Map New forecast layout! Learn more

10-Day Weather Forecast

Advertisements
Track Severe Weather on mobile